Time;durP1;ratioP1;P1;durP2;ratioP2;P2;SDS_P1;SDS_P2;PMS_P1;PMS_P2;Temp;Humidity;BMP_temperature;BMP_pressure;BME280_temperature;BME280_humidity;BME280_pressure;Samples;Min_cycle;Max_cycle;Signal;HPM_P1;HPM_P2
2023/04/04 00:00:12;;;;;;;4.03;1.40;;;1.20;91.40;;;;;;4945163;29;20095;-72
2023/04/04 05:01:32;;;;;;;5.35;2.70;;;-0.90;99.90;;;;;;5854404;23;20023;-71
2023/04/04 05:03:58;;;;;;;5.88;2.78;;;-0.90;99.60;;;;;;4958715;29;20039;-72
2023/04/04 05:06:34;;;;;;;7.00;3.10;;;-0.90;99.90;;;;;;4956062;29;20397;-75
2023/04/04 05:09:00;;;;;;;5.10;2.88;;;-0.90;99.90;;;;;;4954336;28;20118;-71
2023/04/04 05:11:30;;;;;;;6.20;3.10;;;-0.90;99.90;;;;;;4960995;29;20308;-74
2023/04/04 05:13:57;;;;;;;6.30;3.03;;;-0.90;99.90;;;;;;4949617;29;20034;-73
2023/04/04 05:16:25;;;;;;;5.22;2.60;;;-0.90;99.90;;;;;;4949316;29;20024;-73
2023/04/04 05:18:54;;;;;;;7.22;3.35;;;-0.80;99.90;;;;;;4952945;29;20043;-71
2023/04/04 05:21:20;;;;;;;8.45;3.33;;;-0.70;99.90;;;;;;4957053;29;20063;-72
2023/04/04 05:23:48;;;;;;;6.25;3.00;;;-0.60;99.90;;;;;;4955146;29;20034;-73
2023/04/04 05:26:15;;;;;;;8.60;3.50;;;-0.50;99.90;;;;;;4962241;29;20034;-73
2023/04/04 05:28:41;;;;;;;6.93;3.78;;;-0.50;99.50;;;;;;4961919;29;20058;-73
2023/04/04 05:31:07;;;;;;;5.20;2.97;;;-0.60;99.50;;;;;;4962195;29;20023;-71
2023/04/04 05:33:35;;;;;;;6.78;2.80;;;-0.60;99.40;;;;;;4962487;29;20301;-71
2023/04/04 05:36:11;;;;;;;4.75;2.45;;;-0.50;99.20;;;;;;4957625;29;20082;-73
2023/04/04 05:38:43;;;;;;;9.30;4.70;;;-0.60;98.90;;;;;;4965418;29;20047;-72
2023/04/04 05:41:09;;;;;;;11.65;4.45;;;-0.50;99.40;;;;;;4965208;29;20027;-74
2023/04/04 05:43:36;;;;;;;7.35;3.05;;;-0.50;99.20;;;;;;4965744;29;20028;-74
2023/04/04 05:46:07;;;;;;;4.93;3.08;;;-0.50;99.10;;;;;;4965578;29;20209;-72
2023/04/04 05:48:39;;;;;;;6.60;3.30;;;-0.50;99.10;;;;;;4965795;29;20383;-72
2023/04/04 05:51:05;;;;;;;4.75;3.03;;;-0.50;98.90;;;;;;4964928;29;20043;-71
2023/04/04 05:53:44;;;;;;;7.97;3.00;;;-0.40;98.90;;;;;;4964904;29;20024;-73
2023/04/04 05:56:14;;;;;;;6.28;2.90;;;-0.40;98.80;;;;;;4965707;29;20082;-73
2023/04/04 05:58:39;;;;;;;6.00;3.00;;;-0.40;98.70;;;;;;4962284;29;20389;-72
2023/04/04 06:01:09;;;;;;;5.15;3.03;;;-0.30;98.40;;;;;;4964616;29;20050;-73
2023/04/04 06:03:36;;;;;;;7.43;3.17;;;-0.20;98.40;;;;;;4945850;29;20043;-72
2023/04/04 06:06:04;;;;;;;5.90;2.97;;;-0.20;98.10;;;;;;4945554;29;20047;-73
2023/04/04 06:08:33;;;;;;;4.65;2.80;;;-0.20;97.90;;;;;;4946816;29;20059;-73
2023/04/04 06:10:58;;;;;;;5.22;2.90;;;-0.10;97.80;;;;;;4935626;29;20035;-74
2023/04/04 06:13:24;;;;;;;7.80;3.20;;;0.00;97.60;;;;;;4947313;29;20031;-73
2023/04/04 06:15:54;;;;;;;5.20;2.90;;;0.10;97.20;;;;;;4945229;29;20020;-73
2023/04/04 06:18:20;;;;;;;6.03;2.58;;;0.20;96.90;;;;;;4946111;29;20046;-70
2023/04/04 06:20:47;;;;;;;5.07;2.92;;;0.30;96.60;;;;;;4942353;29;20044;-76
2023/04/04 06:23:15;;;;;;;7.72;2.60;;;0.50;95.70;;;;;;4926835;29;20024;-71
2023/04/04 06:25:44;;;;;;;6.55;2.75;;;0.60;95.60;;;;;;4926114;29;20031;-72
2023/04/04 06:28:12;;;;;;;5.65;2.55;;;0.70;94.40;;;;;;4926642;29;20046;-73
2023/04/04 06:30:38;;;;;;;6.35;2.50;;;0.80;94.10;;;;;;4933356;29;20034;-71
2023/04/04 06:33:06;;;;;;;8.73;3.08;;;1.00;94.00;;;;;;4933249;29;20047;-71
2023/04/04 06:35:33;;;;;;;4.95;2.65;;;1.10;93.80;;;;;;4936924;29;20023;-70
2023/04/04 06:38:00;;;;;;;6.00;2.50;;;1.20;93.50;;;;;;4942319;29;20039;-73
2023/04/04 06:40:27;;;;;;;5.60;2.83;;;1.40;92.70;;;;;;4919707;29;20028;-73
2023/04/04 06:42:57;;;;;;;6.03;2.25;;;1.50;92.30;;;;;;4944794;29;20031;-72
2023/04/04 06:45:26;;;;;;;8.02;2.92;;;1.60;92.00;;;;;;4945525;29;20027;-74
2023/04/04 06:47:53;;;;;;;6.88;2.60;;;1.80;91.80;;;;;;4933326;29;20024;-74
2023/04/04 06:50:21;;;;;;;5.07;2.28;;;1.90;91.60;;;;;;4946358;29;20217;-72
2023/04/04 06:52:51;;;;;;;4.57;2.35;;;1.90;91.10;;;;;;4931959;29;20213;-72
2023/04/04 06:55:17;;;;;;;6.15;2.40;;;2.10;90.70;;;;;;4926260;29;20035;-74
2023/04/04 06:57:43;;;;;;;7.47;2.45;;;2.20;90.60;;;;;;4930547;29;20401;-72
2023/04/04 07:00:10;;;;;;;5.45;2.10;;;2.20;89.60;;;;;;4945938;29;20067;-75
2023/04/04 07:02:36;;;;;;;6.22;2.22;;;2.40;89.40;;;;;;4924452;29;20083;-75
2023/04/04 07:05:03;;;;;;;4.85;2.42;;;2.40;89.00;;;;;;4924090;29;20032;-73
2023/04/04 07:07:31;;;;;;;7.78;2.67;;;2.50;88.90;;;;;;4938716;29;20217;-73
2023/04/04 07:09:57;;;;;;;;;;;2.50;88.10;;;;;;4950487;29;20034;-72
2023/04/04 07:12:23;;;;;;;5.30;2.22;;;2.70;87.00;;;;;;4947482;29;19907;-72
2023/04/04 07:14:57;;;;;;;5.13;1.95;;;2.70;87.40;;;;;;4949099;29;20212;-72
2023/04/04 07:17:29;;;;;;;7.43;2.30;;;2.70;86.90;;;;;;4949095;29;20126;-74
2023/04/04 07:19:55;;;;;;;4.70;2.05;;;2.80;87.70;;;;;;4945417;29;20039;-73
2023/04/04 07:22:20;;;;;;;5.00;1.77;;;2.90;86.00;;;;;;4945889;29;20088;-72
2023/04/04 07:24:47;;;;;;;6.25;2.40;;;2.90;86.00;;;;;;4945704;29;20070;-73
2023/04/04 07:27:14;;;;;;;4.25;2.15;;;3.10;85.40;;;;;;4945779;29;20039;-72
2023/04/04 07:29:40;;;;;;;8.00;2.43;;;3.10;85.90;;;;;;4945633;29;20031;-72
2023/04/04 07:32:06;;;;;;;4.20;2.10;;;3.20;84.80;;;;;;4945198;29;20466;-73
2023/04/04 07:34:31;;;;;;;8.18;2.70;;;3.30;85.90;;;;;;4945302;29;20062;-71
2023/04/04 07:36:57;;;;;;;3.35;2.13;;;3.40;84.30;;;;;;4945091;29;20027;-73
2023/04/04 07:39:26;;;;;;;5.68;2.10;;;3.50;84.80;;;;;;4932869;29;20198;-73
2023/04/04 07:41:52;;;;;;;5.70;2.20;;;3.70;83.80;;;;;;4944793;29;20325;-74
2023/04/04 07:44:18;;;;;;;7.60;2.65;;;3.70;83.10;;;;;;4945067;29;20020;-73
2023/04/04 07:46:43;;;;;;;5.20;2.17;;;3.70;82.80;;;;;;4945337;29;20023;-73
2023/04/04 07:49:09;;;;;;;4.68;1.85;;;3.90;83.10;;;;;;4944582;29;20103;-74
2023/04/04 07:51:41;;;;;;;5.10;1.88;;;4.00;83.20;;;;;;4944815;29;20024;-73
2023/04/04 07:55:02;;;;;;;4.95;1.70;;;4.00;82.80;;;;;;4926968;29;20075;-74
2023/04/04 07:57:30;;;;;;;5.97;1.90;;;4.00;81.00;;;;;;4885344;29;20056;-74
2023/04/04 08:00:13;;;;;;;3.53;1.75;;;4.10;80.80;;;;;;4920698;29;20038;-74
2023/04/04 08:02:44;;;;;;;4.68;1.80;;;4.20;80.50;;;;;;4924184;29;20050;-75
2023/04/04 08:05:10;;;;;;;5.57;1.88;;;4.30;79.80;;;;;;4936151;29;20040;-72
2023/04/04 08:07:35;;;;;;;2.90;1.67;;;4.40;79.80;;;;;;4943405;29;20026;-73
2023/04/04 08:10:08;;;;;;;4.47;1.80;;;4.40;79.00;;;;;;4936550;29;20035;-73
2023/04/04 08:12:42;;;;;;;4.82;2.13;;;4.40;78.50;;;;;;4943868;29;20428;-72
2023/04/04 08:15:11;;;;;;;3.40;1.98;;;4.40;79.40;;;;;;4937914;29;20032;-72
2023/04/04 08:17:41;;;;;;;4.25;1.90;;;4.50;81.10;;;;;;4939540;29;20035;-72
2023/04/04 08:20:18;;;;;;;4.68;1.80;;;4.60;78.50;;;;;;4924244;29;20044;-74
2023/04/04 08:22:44;;;;;;;6.82;1.67;;;4.50;79.30;;;;;;4939675;29;20036;-76
2023/04/04 08:25:13;;;;;;;5.28;2.00;;;4.70;81.60;;;;;;4934586;29;20041;-72
2023/04/04 08:27:40;;;;;;;4.50;1.70;;;4.80;80.00;;;;;;4937363;29;20060;-74
2023/04/04 08:30:08;;;;;;;6.97;1.90;;;4.90;78.80;;;;;;4932531;29;20091;-72
2023/04/04 08:32:33;;;;;;;7.53;2.60;;;4.90;79.50;;;;;;4938644;29;20074;-72
2023/04/04 08:34:59;;;;;;;4.28;1.70;;;5.10;78.80;;;;;;4942092;29;20031;-77
2023/04/04 08:37:25;;;;;;;4.00;1.75;;;5.10;78.30;;;;;;4934952;29;20325;-76
2023/04/04 08:39:54;;;;;;;3.67;1.77;;;5.20;77.50;;;;;;4944202;29;20037;-71
2023/04/04 08:42:34;;;;;;;3.83;1.65;;;5.10;77.60;;;;;;4931937;29;20039;-74
2023/04/04 08:45:45;;;;;;;6.40;1.92;;;5.20;78.00;;;;;;4942810;29;20055;-72
2023/04/04 08:48:29;;;;;;;4.50;1.75;;;5.40;77.60;;;;;;4927966;29;20024;-74
2023/04/04 08:50:58;;;;;;;5.85;2.00;;;5.50;76.70;;;;;;4930461;29;20039;-73
2023/04/04 08:53:56;;;;;;;5.40;1.98;;;5.40;76.90;;;;;;4927712;29;20028;-73
2023/04/04 08:56:25;;;;;;;3.28;1.60;;;5.40;78.50;;;;;;4908775;29;20036;-74
2023/04/04 08:59:02;;;;;;;6.38;1.83;;;5.70;76.40;;;;;;4939139;29;20050;-75
2023/04/04 09:01:38;;;;;;;6.90;1.83;;;5.80;76.50;;;;;;4943096;29;20258;-73
2023/04/04 09:04:12;;;;;;;5.47;2.00;;;5.80;74.50;;;;;;4943836;29;20032;-72
2023/04/04 09:06:39;;;;;;;4.78;2.00;;;5.90;75.00;;;;;;4925395;29;20080;-72
2023/04/04 09:09:06;;;;;;;4.93;1.73;;;6.10;74.50;;;;;;4923777;29;20028;-73
2023/04/04 09:11:38;;;;;;;6.28;1.98;;;6.20;74.40;;;;;;4940439;29;20034;-72
2023/04/04 09:14:03;;;;;;;5.63;1.73;;;6.30;74.00;;;;;;4946337;29;20032;-73
2023/04/04 09:16:30;;;;;;;3.40;1.58;;;6.50;73.30;;;;;;4946502;29;20271;-72
2023/04/04 09:18:59;;;;;;;5.07;1.73;;;6.60;72.80;;;;;;4940929;29;20227;-77
2023/04/04 09:21:25;;;;;;;7.95;1.92;;;6.70;71.90;;;;;;4934309;29;20137;-75
2023/04/04 09:24:09;;;;;;;9.18;2.42;;;6.90;71.80;;;;;;4946136;29;20046;-74
2023/04/04 09:26:52;;;;;;;8.35;2.00;;;6.80;71.30;;;;;;4947891;29;20087;-74
2023/04/04 09:29:19;;;;;;;11.02;2.38;;;6.90;71.20;;;;;;4942621;29;20035;-74
2023/04/04 09:31:48;;;;;;;9.02;2.15;;;7.00;70.70;;;;;;4947779;29;20079;-75
2023/04/04 09:34:18;;;;;;;5.82;2.13;;;7.00;70.30;;;;;;4946794;29;20246;-74
2023/04/04 09:36:45;;;;;;;5.32;1.85;;;6.90;68.90;;;;;;4927528;29;20024;-73
2023/04/04 09:39:28;;;;;;;4.30;1.98;;;6.80;68.50;;;;;;4945918;29;20091;-75
2023/04/04 09:41:56;;;;;;;4.60;1.95;;;6.90;68.50;;;;;;4947372;29;20023;-73
2023/04/04 09:44:33;;;;;;;6.60;1.60;;;6.80;69.10;;;;;;4945562;29;20230;-73
2023/04/04 09:47:26;;;;;;;4.70;1.90;;;6.70;71.70;;;;;;4944914;29;20051;-75
2023/04/04 09:50:29;;;;;;;6.72;2.00;;;6.80;68.80;;;;;;4853654;29;20121;-75
2023/04/04 09:53:15;;;;;;;5.93;2.03;;;6.90;69.60;;;;;;4870008;29;20042;-72
2023/04/04 09:55:40;;;;;;;5.10;2.03;;;6.90;68.80;;;;;;4943161;29;20041;-74
2023/04/04 09:58:28;;;;;;;5.40;2.20;;;7.00;68.60;;;;;;4946227;29;20031;-76
2023/04/04 10:01:12;;;;;;;3.45;1.77;;;7.10;69.00;;;;;;4946393;29;20106;-73
2023/04/04 10:03:56;;;;;;;3.70;1.67;;;7.10;69.00;;;;;;4947058;29;20039;-73
2023/04/04 10:06:55;;;;;;;4.20;1.95;;;7.20;68.70;;;;;;4946949;29;20099;-74
2023/04/04 10:09:21;;;;;;;4.57;1.98;;;7.00;68.50;;;;;;4946954;29;20039;-74
2023/04/04 10:11:47;;;;;;;4.05;2.05;;;7.10;69.20;;;;;;4946726;29;20024;-73
2023/04/04 10:14:14;;;;;;;4.32;1.77;;;7.10;68.90;;;;;;4934884;29;20042;-75
2023/04/04 10:17:01;;;;;;;3.58;1.88;;;7.10;69.40;;;;;;4928289;29;20035;-74
2023/04/04 10:19:29;;;;;;;5.93;2.40;;;7.10;69.60;;;;;;4927087;29;20032;-74
2023/04/04 10:21:55;;;;;;;5.00;2.03;;;7.10;69.20;;;;;;4946252;29;20058;-74
2023/04/04 10:24:21;;;;;;;2.97;1.50;;;7.30;69.90;;;;;;4946521;29;20027;-74
2023/04/04 10:26:47;;;;;;;3.58;1.83;;;7.30;69.00;;;;;;4947041;29;20031;-74
2023/04/04 10:29:16;;;;;;;4.30;2.00;;;7.30;68.90;;;;;;4946390;29;20149;-74
2023/04/04 10:31:44;;;;;;;4.20;1.83;;;7.30;68.80;;;;;;4946286;29;20034;-75
2023/04/04 10:34:46;;;;;;;4.18;1.83;;;7.30;69.20;;;;;;4945905;29;20024;-73
2023/04/04 10:37:30;;;;;;;4.53;1.90;;;7.40;68.70;;;;;;4934725;29;20043;-73
2023/04/04 10:40:26;;;;;;;5.32;1.98;;;7.60;68.00;;;;;;4929708;29;20035;-73
2023/04/04 10:43:00;;;;;;;4.75;1.73;;;7.70;66.80;;;;;;4930378;29;20048;-73
2023/04/04 10:45:37;;;;;;;6.93;2.35;;;7.60;67.60;;;;;;4935735;29;20076;-74
2023/04/04 10:48:37;;;;;;;4.60;1.75;;;7.70;67.60;;;;;;4944548;29;20047;-77
2023/04/04 10:51:13;;;;;;;5.13;1.90;;;7.80;71.60;;;;;;4925119;29;20048;-76
2023/04/04 10:53:47;;;;;;;4.05;2.00;;;8.10;68.00;;;;;;4927250;29;20050;-76
2023/04/04 10:56:34;;;;;;;5.88;2.03;;;8.20;66.50;;;;;;4926160;29;20210;-75
2023/04/04 10:59:23;;;;;;;8.65;1.92;;;8.30;65.60;;;;;;4940716;29;20262;-73
2023/04/04 11:01:53;;;;;;;4.80;1.90;;;8.30;66.20;;;;;;4940851;29;20036;-74
2023/04/04 11:04:41;;;;;;;9.45;2.25;;;8.60;66.20;;;;;;4935690;29;20043;-71
2023/04/04 11:07:09;;;;;;;5.07;2.15;;;8.90;67.20;;;;;;4934107;29;20098;-75
2023/04/04 11:10:15;;;;;;;5.53;1.88;;;9.10;65.60;;;;;;4932067;29;20059;-74
2023/04/04 11:16:14;;;;;;;3.97;1.80;;;9.90;63.70;;;;;;4884160;29;20066;-75
2023/04/04 11:18:44;;;;;;;4.85;1.95;;;10.40;62.60;;;;;;4941471;29;20082;-74
2023/04/04 11:21:26;;;;;;;5.03;1.88;;;10.70;60.80;;;;;;4950656;29;20023;-74
2023/04/04 11:24:15;;;;;;;7.30;1.88;;;11.60;61.30;;;;;;4946503;29;20031;-74
2023/04/04 11:26:44;;;;;;;7.28;1.75;;;12.90;59.10;;;;;;4942561;29;20330;-73
2023/04/04 11:29:23;;;;;;;3.55;1.70;;;13.50;57.10;;;;;;4938160;29;20027;-74
2023/04/04 11:31:51;;;;;;;3.70;1.83;;;14.20;55.40;;;;;;4930317;29;20047;-75
2023/04/04 11:34:31;;;;;;;7.30;2.08;;;14.50;57.00;;;;;;4931670;29;20043;-74
2023/04/04 11:37:20;;;;;;;6.13;2.25;;;15.00;53.80;;;;;;4933329;29;20039;-73
2023/04/04 11:39:56;;;;;;;20.67;2.95;;;15.80;55.10;;;;;;4941839;29;20046;-75
2023/04/04 11:42:22;;;;;;;7.35;1.65;;;16.50;53.40;;;;;;4928926;29;20032;-75
2023/04/04 11:45:14;;;;;;;5.20;1.70;;;16.70;52.90;;;;;;4938721;29;20225;-74
2023/04/04 11:48:01;;;;;;;6.82;1.70;;;17.10;51.60;;;;;;4872042;29;20346;-74
2023/04/04 11:50:39;;;;;;;2.90;1.48;;;17.50;51.20;;;;;;4886329;29;20049;-75
2023/04/04 11:56:24;;;;;;;4.78;1.70;;;16.90;50.00;;;;;;4871756;29;20108;-73
2023/04/04 11:58:50;;;;;;;4.57;1.70;;;17.60;52.50;;;;;;4870993;29;20049;-78
2023/04/04 12:01:20;;;;;;;5.07;2.00;;;18.20;48.80;;;;;;4870592;29;20051;-75
2023/04/04 12:03:47;;;;;;;3.85;1.60;;;17.60;49.60;;;;;;4886717;29;20049;-73
2023/04/04 12:06:17;;;;;;;2.67;1.58;;;18.30;48.40;;;;;;4870487;29;20323;-72
2023/04/04 12:08:47;;;;;;;3.65;1.70;;;18.70;46.80;;;;;;4868077;29;20037;-72
2023/04/04 12:11:19;;;;;;;5.10;1.70;;;19.40;47.60;;;;;;4874606;29;20048;-71
2023/04/04 12:13:51;;;;;;;3.28;1.60;;;19.20;46.60;;;;;;4886242;29;20048;-73
2023/04/04 12:16:23;;;;;;;3.30;1.65;;;19.30;46.10;;;;;;4885760;29;20049;-76
2023/04/04 12:18:49;;;;;;;3.08;1.80;;;18.80;45.60;;;;;;4873675;29;20049;-75
2023/04/04 12:21:23;;;;;;;2.88;1.38;;;19.20;46.40;;;;;;4882381;29;20042;-72
2023/04/04 12:23:52;;;;;;;3.95;1.55;;;19.80;46.00;;;;;;4889599;29;20048;-72
2023/04/04 12:26:41;;;;;;;3.53;1.52;;;19.10;46.10;;;;;;4944368;29;20035;-78
2023/04/04 12:29:15;;;;;;;3.47;1.50;;;18.80;46.60;;;;;;4943718;29;20167;-74
2023/04/04 12:31:46;;;;;;;3.53;1.45;;;19.50;47.70;;;;;;4944905;29;20119;-73
2023/04/04 12:37:21;;;;;;;3.40;1.40;;;19.70;45.70;;;;;;4928414;29;20052;-74
2023/04/04 12:39:51;;;;;;;4.32;1.80;;;19.80;46.50;;;;;;4944310;29;20305;-72
2023/04/04 12:42:21;;;;;;;4.47;1.80;;;19.40;45.30;;;;;;4942881;29;20103;-73
2023/04/04 12:44:53;;;;;;;5.43;1.98;;;18.90;45.80;;;;;;4944772;29;20059;-72
2023/04/04 12:47:21;;;;;;;4.22;1.55;;;19.30;44.90;;;;;;4947465;29;20040;-75
2023/04/04 12:49:47;;;;;;;2.90;1.60;;;20.20;45.30;;;;;;4947302;29;20067;-74
2023/04/04 12:52:20;;;;;;;3.42;1.45;;;21.80;43.90;;;;;;4948050;29;20047;-74
2023/04/04 12:54:47;;;;;;;3.42;1.65;;;22.90;54.70;;;;;;4948470;29;20039;-73
2023/04/04 12:57:18;;;;;;;4.88;1.45;;;22.80;50.50;;;;;;4948000;29;20039;-75
2023/04/04 12:59:47;;;;;;;3.78;1.42;;;22.20;50.70;;;;;;4945966;29;20056;-76
2023/04/04 13:02:18;;;;;;;3.17;1.40;;;22.50;50.00;;;;;;4936278;29;20063;-74
2023/04/04 13:04:45;;;;;;;4.00;1.42;;;22.20;49.60;;;;;;4928925;29;20214;-72
2023/04/04 13:07:37;;;;;;;3.97;1.70;;;20.70;50.70;;;;;;4928561;29;20229;-74
2023/04/04 13:10:04;;;;;;;4.00;1.83;;;19.70;52.10;;;;;;4933118;29;20103;-73
2023/04/04 13:12:52;;;;;;;3.55;1.65;;;18.80;54.00;;;;;;4947582;29;20043;-74
2023/04/04 13:15:18;;;;;;;3.60;1.70;;;19.80;53.40;;;;;;4947708;29;20045;-71
2023/04/04 13:17:48;;;;;;;2.75;1.40;;;21.50;52.10;;;;;;4927824;29;20032;-73
2023/04/04 13:20:15;;;;;;;4.57;1.88;;;22.40;50.30;;;;;;4934208;29;20217;-72
2023/04/04 13:22:42;;;;;;;4.18;1.52;;;22.80;49.60;;;;;;4948115;29;20040;-75
2023/04/04 13:25:09;;;;;;;3.40;1.80;;;23.30;48.70;;;;;;4947210;29;20035;-76
2023/04/04 13:27:36;;;;;;;3.37;1.40;;;23.80;48.90;;;;;;4947765;29;20071;-72
2023/04/04 13:30:03;;;;;;;3.15;1.38;;;24.10;47.80;;;;;;4946848;29;20479;-72
2023/04/04 13:32:28;;;;;;;4.35;1.80;;;24.60;47.10;;;;;;4947244;29;20372;-74
2023/04/04 13:34:54;;;;;;;3.58;1.63;;;24.80;46.20;;;;;;4945873;29;20032;-73
2023/04/04 13:37:20;;;;;;;3.03;1.58;;;25.20;45.90;;;;;;4947200;29;20059;-73
2023/04/04 13:39:46;;;;;;;3.30;1.60;;;25.60;45.60;;;;;;4946782;28;20054;-73
2023/04/04 13:42:12;;;;;;;3.25;1.45;;;26.10;45.30;;;;;;4945936;29;20293;-74
2023/04/04 13:44:38;;;;;;;5.05;1.55;;;25.70;44.70;;;;;;4947515;29;20038;-74
2023/04/04 13:47:04;;;;;;;3.50;1.83;;;25.60;44.60;;;;;;4946243;29;20090;-74
2023/04/04 13:49:30;;;;;;;3.00;1.60;;;25.10;44.70;;;;;;4947204;29;20094;-72
2023/04/04 13:51:55;;;;;;;2.42;1.40;;;23.40;45.20;;;;;;4947196;29;20043;-73
2023/04/04 13:54:21;;;;;;;4.57;1.42;;;23.30;45.50;;;;;;4946592;29;20258;-72
2023/04/04 13:56:46;;;;;;;4.03;1.30;;;23.80;46.40;;;;;;4946562;29;20040;-73
2023/04/04 13:59:12;;;;;;;3.05;1.52;;;23.20;44.30;;;;;;4938382;29;20024;-74
2023/04/04 14:01:39;;;;;;;3.22;1.55;;;24.00;44.60;;;;;;4945907;29;20051;-74
2023/04/04 14:04:05;;;;;;;3.40;1.23;;;24.70;45.10;;;;;;4947070;29;20258;-72
2023/04/04 14:06:31;;;;;;;2.53;1.33;;;25.90;44.20;;;;;;4946645;29;20036;-75
2023/04/04 14:08:57;;;;;;;4.43;1.58;;;25.90;43.80;;;;;;4946983;29;20250;-75
2023/04/04 14:11:24;;;;;;;3.00;1.45;;;24.30;43.90;;;;;;4940368;29;20226;-72
2023/04/04 14:13:53;;;;;;;4.47;1.45;;;23.20;45.10;;;;;;4946979;29;20051;-75
2023/04/04 14:16:20;;;;;;;6.35;1.70;;;23.70;45.00;;;;;;4946297;29;20054;-73
2023/04/04 14:18:47;;;;;;;3.25;1.42;;;24.10;46.10;;;;;;4945026;29;20218;-73
2023/04/04 14:21:13;;;;;;;4.53;1.73;;;25.00;44.10;;;;;;4946482;29;20023;-76
2023/04/04 14:23:39;;;;;;;2.55;1.15;;;25.60;43.50;;;;;;4946987;29;20356;-73
2023/04/04 14:26:05;;;;;;;3.42;1.60;;;25.80;45.30;;;;;;4946875;29;20039;-72
2023/04/04 14:28:31;;;;;;;3.67;1.52;;;26.50;42.60;;;;;;4946245;29;20040;-74
2023/04/04 14:30:57;;;;;;;2.58;1.52;;;26.40;42.70;;;;;;4945813;29;20333;-73
2023/04/04 14:33:22;;;;;;;2.70;1.30;;;26.20;42.40;;;;;;4946484;29;20038;-74
2023/04/04 14:35:49;;;;;;;3.83;2.00;;;26.20;41.90;;;;;;4936446;29;20243;-74
2023/04/04 14:38:15;;;;;;;4.32;1.60;;;25.20;42.40;;;;;;4944157;29;20039;-72
2023/04/04 14:40:41;;;;;;;3.00;1.48;;;26.10;43.50;;;;;;4946359;29;20071;-75
2023/04/04 14:43:07;;;;;;;4.57;1.58;;;25.30;42.70;;;;;;4946404;29;20047;-74
2023/04/04 14:45:33;;;;;;;5.45;1.77;;;25.60;42.00;;;;;;4946264;29;20028;-74
2023/04/04 14:47:59;;;;;;;2.78;1.58;;;25.30;42.40;;;;;;4946139;29;20333;-74
2023/04/04 14:50:25;;;;;;;3.97;1.65;;;25.00;42.70;;;;;;4945638;29;20031;-76
2023/04/04 14:52:51;;;;;;;3.15;1.70;;;25.10;43.50;;;;;;4946264;29;20233;-75
2023/04/04 14:55:20;;;;;;;4.82;1.80;;;25.50;42.60;;;;;;4945851;29;20039;-74
2023/04/04 14:57:48;;;;;;;3.17;1.55;;;25.30;41.80;;;;;;4946059;29;20361;-73
2023/04/04 15:00:19;;;;;;;4.82;1.92;;;24.70;42.00;;;;;;4945829;29;20039;-75
2023/04/04 15:02:47;;;;;;;3.17;1.52;;;24.60;42.20;;;;;;4946169;29;20043;-75
2023/04/04 15:05:17;;;;;;;3.38;1.58;;;26.10;41.50;;;;;;4944735;29;20046;-75
2023/04/04 15:07:45;;;;;;;3.13;1.60;;;25.90;41.40;;;;;;4946250;29;20111;-74
2023/04/04 15:10:11;;;;;;;2.88;1.52;;;26.00;41.20;;;;;;4942778;29;20039;-75
2023/04/04 15:12:37;;;;;;;5.22;2.08;;;25.30;41.90;;;;;;4944229;29;20369;-75
2023/04/04 15:15:03;;;;;;;6.18;1.83;;;25.30;42.20;;;;;;4925632;29;20024;-73
2023/04/04 15:17:29;;;;;;;3.33;1.80;;;25.30;42.60;;;;;;4936809;29;20044;-73
2023/04/04 15:19:54;;;;;;;4.63;1.88;;;26.30;42.10;;;;;;4932720;29;20075;-72
2023/04/04 15:22:20;;;;;;;4.25;1.90;;;26.20;42.40;;;;;;4945428;29;20063;-72
2023/04/04 15:24:46;;;;;;;4.07;1.75;;;25.90;42.60;;;;;;4945776;29;20066;-74
2023/04/04 15:27:12;;;;;;;2.60;1.42;;;24.70;43.70;;;;;;4946011;29;20166;-73
2023/04/04 15:29:38;;;;;;;5.20;1.80;;;23.00;44.40;;;;;;4945804;29;20325;-73
2023/04/04 15:32:03;;;;;;;3.88;1.90;;;21.30;45.00;;;;;;4945799;29;20043;-72
2023/04/04 15:34:29;;;;;;;4.05;1.92;;;19.40;47.60;;;;;;4944750;29;20028;-73
2023/04/04 15:36:58;;;;;;;4.35;1.70;;;19.20;47.70;;;;;;4932651;29;20217;-74
2023/04/04 15:39:24;;;;;;;4.15;1.85;;;20.70;47.30;;;;;;4945067;29;20086;-75
2023/04/04 15:41:52;;;;;;;4.25;2.10;;;22.30;45.50;;;;;;4944350;29;20348;-73
2023/04/04 15:44:17;;;;;;;2.85;1.77;;;23.00;44.30;;;;;;4944258;29;20087;-74
2023/04/04 15:46:44;;;;;;;4.10;2.15;;;23.50;44.20;;;;;;4945572;29;20028;-73
2023/04/04 15:49:09;;;;;;;5.07;2.00;;;23.50;44.00;;;;;;4935275;29;20040;-72
2023/04/04 15:51:37;;;;;;;5.10;2.00;;;24.10;43.80;;;;;;4942096;29;20303;-73
2023/04/04 15:54:03;;;;;;;6.70;2.00;;;24.40;43.30;;;;;;4945597;29;20023;-72
2023/04/04 15:56:29;;;;;;;3.65;1.67;;;24.10;42.90;;;;;;4945002;29;20039;-73
2023/04/04 15:58:55;;;;;;;4.18;1.85;;;23.30;43.60;;;;;;4944037;29;20050;-75
2023/04/04 16:01:21;;;;;;;4.32;1.67;;;22.60;43.90;;;;;;4943283;29;20067;-72
2023/04/04 16:03:47;;;;;;;3.45;1.83;;;22.80;45.10;;;;;;4944980;29;20198;-76
2023/04/04 16:06:13;;;;;;;3.00;1.70;;;22.80;44.50;;;;;;4944474;29;20095;-74
2023/04/04 16:08:39;;;;;;;5.15;1.60;;;23.00;44.40;;;;;;4945150;29;20079;-73
2023/04/04 16:11:05;;;;;;;3.50;1.65;;;22.70;45.70;;;;;;4941572;29;20107;-73
2023/04/04 16:13:31;;;;;;;4.90;1.88;;;23.20;44.40;;;;;;4944808;29;20027;-72
2023/04/04 16:15:57;;;;;;;4.00;2.10;;;22.50;45.00;;;;;;4944818;29;20301;-73
2023/04/04 16:18:22;;;;;;;3.13;2.13;;;22.70;44.70;;;;;;4939858;29;20326;-74
2023/04/04 16:20:48;;;;;;;5.07;2.35;;;22.90;44.90;;;;;;4934197;29;20066;-73
2023/04/04 16:23:14;;;;;;;3.70;1.85;;;22.20;45.00;;;;;;4944456;29;20095;-75
2023/04/04 16:25:40;;;;;;;5.35;2.28;;;21.90;45.20;;;;;;4943881;29;20233;-71
2023/04/04 16:28:06;;;;;;;5.60;2.10;;;21.90;45.60;;;;;;4944537;29;20087;-77
2023/04/04 16:30:31;;;;;;;5.32;1.92;;;21.80;45.40;;;;;;4944121;29;20249;-74
2023/04/04 16:32:57;;;;;;;4.55;1.90;;;21.60;40.90;;;;;;4944563;29;20058;-76
2023/04/04 16:35:23;;;;;;;4.10;2.17;;;21.00;41.50;;;;;;4936026;29;20324;-74
2023/04/04 16:37:49;;;;;;;4.45;1.80;;;20.60;41.60;;;;;;4934477;29;20199;-74
2023/04/04 16:40:15;;;;;;;2.80;1.75;;;20.20;42.90;;;;;;4931736;29;20221;-74
2023/04/04 16:42:41;;;;;;;5.30;1.90;;;20.60;41.90;;;;;;4938867;29;20036;-74
2023/04/04 16:45:08;;;;;;;4.30;1.92;;;19.80;42.30;;;;;;4944416;29;20050;-73
2023/04/04 16:47:35;;;;;;;3.70;2.15;;;19.50;42.90;;;;;;4932889;29;20051;-74
2023/04/04 16:50:05;;;;;;;4.70;2.05;;;19.80;42.80;;;;;;4944793;29;20015;-72
2023/04/04 16:52:30;;;;;;;3.95;2.05;;;19.60;42.30;;;;;;4943910;29;20432;-74
2023/04/04 16:54:56;;;;;;;3.55;1.80;;;19.30;42.70;;;;;;4944532;29;20031;-76
2023/04/04 16:57:22;;;;;;;6.18;1.83;;;19.50;42.70;;;;;;4943899;29;20333;-73
2023/04/04 16:59:48;;;;;;;3.72;1.83;;;19.50;42.30;;;;;;4944633;29;20016;-73
2023/04/04 17:02:13;;;;;;;4.82;2.28;;;18.80;43.30;;;;;;4938632;28;20258;-74
2023/04/04 17:04:39;;;;;;;4.95;2.20;;;17.60;44.00;;;;;;4925230;29;20036;-76
2023/04/04 17:07:06;;;;;;;4.55;1.90;;;15.90;45.80;;;;;;4925158;29;20105;-73
2023/04/04 17:09:32;;;;;;;4.43;1.95;;;14.70;47.70;;;;;;4920547;29;20051;-74
2023/04/04 17:11:58;;;;;;;4.07;2.00;;;13.40;49.30;;;;;;4924493;29;20031;-73
2023/04/04 17:14:25;;;;;;;5.10;2.00;;;12.80;50.80;;;;;;4924745;29;20036;-74
2023/04/04 17:16:51;;;;;;;6.80;2.30;;;12.20;52.30;;;;;;4925185;29;20066;-75
2023/04/04 17:19:17;;;;;;;3.88;1.75;;;11.80;53.70;;;;;;4923236;29;20063;-74
2023/04/04 17:21:43;;;;;;;4.15;2.03;;;11.50;54.10;;;;;;4925260;29;20043;-74
2023/04/04 17:24:09;;;;;;;6.60;2.65;;;11.20;53.30;;;;;;4925071;29;20332;-73
2023/04/04 17:26:35;;;;;;;5.60;2.20;;;10.90;54.40;;;;;;4925046;29;20048;-75
2023/04/04 17:29:01;;;;;;;5.63;2.58;;;10.40;55.80;;;;;;4924231;29;20059;-75
2023/04/04 17:31:27;;;;;;;5.55;2.53;;;10.10;56.40;;;;;;4925057;29;20043;-74
2023/04/04 17:33:53;;;;;;;5.88;2.30;;;9.70;56.60;;;;;;4928842;29;20194;-75
2023/04/04 17:36:19;;;;;;;5.57;2.75;;;9.40;57.30;;;;;;4927813;29;20039;-74
2023/04/04 17:38:45;;;;;;;5.00;2.70;;;9.10;58.10;;;;;;4928237;29;20048;-75
2023/04/04 17:41:12;;;;;;;4.10;2.20;;;8.90;59.00;;;;;;4928775;29;20040;-75
2023/04/04 17:43:38;;;;;;;4.35;2.38;;;8.80;59.60;;;;;;4928097;29;20047;-76
2023/04/04 17:46:05;;;;;;;5.13;2.80;;;8.60;59.20;;;;;;4928445;29;20055;-75
2023/04/04 17:48:36;;;;;;;5.82;2.17;;;8.50;59.90;;;;;;4926625;29;20036;-78
2023/04/04 17:51:03;;;;;;;6.82;2.60;;;8.50;60.10;;;;;;4928414;29;20062;-76
2023/04/04 17:53:30;;;;;;;4.72;2.40;;;8.20;60.70;;;;;;4915332;29;20047;-74
2023/04/04 17:55:57;;;;;;;6.22;2.78;;;8.00;61.50;;;;;;4928281;29;20074;-76
2023/04/04 17:58:24;;;;;;;5.82;2.85;;;7.90;62.10;;;;;;4926500;29;20054;-73
2023/04/04 18:00:54;;;;;;;5.57;3.05;;;7.80;63.00;;;;;;4928131;29;20198;-73
2023/04/04 18:03:21;;;;;;;4.30;2.55;;;7.70;63.30;;;;;;4927312;29;20056;-74
2023/04/04 18:05:48;;;;;;;5.85;2.97;;;7.60;63.60;;;;;;4928025;29;20063;-77
2023/04/04 18:08:14;;;;;;;6.80;2.63;;;7.50;63.90;;;;;;4927718;29;20043;-75
2023/04/04 18:10:39;;;;;;;4.05;2.63;;;7.40;64.40;;;;;;4924254;29;20040;-74
2023/04/04 18:13:06;;;;;;;7.22;3.00;;;7.30;64.90;;;;;;4928119;29;20040;-75